createdAt,value
2023-04-14T00:01:35.239Z,48.9
2023-04-14T00:07:13.511Z,48.9
2023-04-14T00:13:06.131Z,48.9
2023-04-14T00:18:59.380Z,48.8
2023-04-14T00:24:50.436Z,48.8
2023-04-14T00:30:42.346Z,48.7
2023-04-14T00:36:18.879Z,48.6
2023-04-14T00:42:10.704Z,48.6
2023-04-14T00:48:02.182Z,48.6
2023-04-14T00:53:54.151Z,48.5
2023-04-14T00:59:30.967Z,48.4
2023-04-14T01:05:09.454Z,48.4
2023-04-14T01:11:00.835Z,48.4
2023-04-14T01:16:52.702Z,48.3
2023-04-14T01:22:43.894Z,48.3
2023-04-14T01:28:20.567Z,48.2
2023-04-14T01:34:13.094Z,48.1
2023-04-14T01:40:04.461Z,48.1
2023-04-14T01:45:40.623Z,48.1
2023-04-14T01:51:33.698Z,48
2023-04-14T01:57:25.816Z,47.9
2023-04-14T02:03:18.221Z,47.9
2023-04-14T02:09:10.127Z,47.8
2023-04-14T02:15:01.114Z,47.8
2023-04-14T02:20:52.825Z,47.7
2023-04-14T02:26:44.408Z,47.7
2023-04-14T02:32:35.354Z,47.6
2023-04-14T02:38:26.270Z,47.6
2023-04-14T02:44:17.644Z,47.6
2023-04-14T02:50:09.349Z,47.5
2023-04-14T02:56:00.648Z,47.4
2023-04-14T03:01:52.792Z,47.4
2023-04-14T03:07:44.786Z,47.3
2023-04-14T03:13:21.081Z,47.3
2023-04-14T03:18:56.771Z,47.3
2023-04-14T03:24:48.020Z,47.2
2023-04-14T03:30:40.658Z,47.1
2023-04-14T03:36:32.022Z,47.1
2023-04-14T03:42:24.840Z,47.1
2023-04-14T03:48:21.230Z,47
2023-04-14T03:54:14.386Z,46.9
2023-04-14T04:00:06.340Z,46.9
2023-04-14T04:06:00.848Z,46.9
2023-04-14T04:11:52.908Z,46.8
2023-04-14T04:17:46.059Z,46.8
2023-04-14T04:23:37.457Z,46.7
2023-04-14T04:29:43.541Z,46.7
2023-04-14T04:35:36.172Z,46.6
2023-04-14T04:41:28.243Z,46.6
2023-04-14T04:47:04.377Z,46.5
2023-04-14T04:52:40.006Z,46.5
2023-04-14T04:58:17.462Z,46.4
2023-04-14T05:03:39.807Z,46.4
2023-04-14T05:09:18.358Z,46.3
2023-04-14T05:14:54.610Z,46.3
2023-04-14T05:20:30.813Z,46.3
2023-04-14T05:26:26.799Z,46.2
2023-04-14T05:32:08.060Z,46.1
2023-04-14T05:37:45.955Z,46.1
2023-04-14T05:43:22.290Z,46.1
2023-04-14T05:49:14.371Z,46
2023-04-14T05:54:51.681Z,46
2023-04-14T06:00:30.541Z,45.9
2023-04-14T06:06:26.440Z,45.9
2023-04-14T06:12:02.822Z,45.9
2023-04-14T06:17:38.262Z,45.8
2023-04-14T06:23:15.164Z,45.8
2023-04-14T06:28:51.276Z,45.7
2023-04-14T06:34:43.741Z,45.7
2023-04-14T06:40:47.863Z,45.6
2023-04-14T06:46:40.072Z,45.6
2023-04-14T06:52:32.747Z,45.5
2023-04-14T06:58:24.852Z,45.5
2023-04-14T07:04:19.722Z,45.4
2023-04-14T07:10:11.370Z,45.4
2023-04-14T07:16:02.977Z,45.3
2023-04-14T07:21:41.446Z,45.3
2023-04-14T07:27:32.906Z,45.3
2023-04-14T07:33:38.471Z,45.2
2023-04-14T07:39:41.924Z,44.2
2023-04-14T07:45:17.873Z,44.1
2023-04-14T07:51:10.493Z,44.1
2023-04-14T07:57:05.064Z,43.7
2023-04-14T08:02:46.949Z,43.8
2023-04-14T08:08:40.208Z,43.8
2023-04-14T08:14:16.014Z,43.9
2023-04-14T08:19:37.470Z,44.1
2023-04-14T08:25:13.651Z,44.3
2023-04-14T08:30:50.508Z,44.4
2023-04-14T08:37:42.216Z,44.6
2023-04-14T08:43:34.212Z,44.8
2023-04-14T08:49:27.763Z,44.8
2023-04-14T08:55:04.133Z,44.8
2023-04-14T09:00:57.050Z,44.8
2023-04-14T09:06:51.953Z,44.8
2023-04-14T09:12:43.497Z,44.7
2023-04-14T09:18:35.422Z,44.7
2023-04-14T09:26:22.113Z,44.6
2023-04-14T09:31:57.682Z,44.6
2023-04-14T09:37:33.909Z,44.5
2023-04-14T09:43:25.451Z,44.5
2023-04-14T09:49:01.723Z,44.4
2023-04-14T09:54:55.149Z,44.4
2023-04-14T10:00:47.542Z,44.4
2023-04-14T10:06:26.402Z,44.3
2023-04-14T10:12:17.479Z,44.3
2023-04-14T10:18:09.488Z,44.3
2023-04-14T10:24:03.050Z,44.2
2023-04-14T10:29:56.239Z,44.1
2023-04-14T10:35:48.933Z,44.1
2023-04-14T10:41:24.659Z,44.1
2023-04-14T10:47:15.840Z,44
2023-04-14T10:53:09.223Z,43.9
2023-04-14T10:59:00.006Z,43.9
2023-04-14T11:04:54.345Z,43.9
2023-04-14T11:10:45.592Z,43.8
2023-04-14T11:16:23.874Z,43.8
2023-04-14T11:22:26.798Z,43.7
2023-04-14T11:28:17.903Z,43.7
2023-04-14T11:34:11.478Z,43.6
2023-04-14T11:39:47.840Z,43.6
2023-04-14T11:45:40.136Z,43.5
2023-04-14T11:51:15.661Z,43.5
2023-04-14T11:57:07.751Z,43.4
2023-04-14T12:02:44.567Z,43.4
2023-04-14T12:08:23.515Z,43.4
2023-04-14T12:14:17.342Z,43.3
2023-04-14T12:19:23.218Z,43.3
2023-04-14T12:24:59.640Z,43.3
2023-04-14T12:30:51.706Z,43.2
2023-04-14T12:36:40.951Z,43.1
2023-04-14T12:42:21.132Z,43.1
2023-04-14T12:48:13.357Z,43.1
2023-04-14T12:54:05.808Z,43
2023-04-14T12:59:57.495Z,42.9
2023-04-14T13:05:53.794Z,42.9
2023-04-14T13:11:47.467Z,42.9
2023-04-14T13:18:34.699Z,42.8
2023-04-14T13:24:28.066Z,42.8
2023-04-14T13:30:20.222Z,42.8
2023-04-14T13:35:57.756Z,42.7
2023-04-14T13:41:51.801Z,42.6
2023-04-14T13:47:47.583Z,42.6
2023-04-14T13:53:39.134Z,42.6
2023-04-14T13:59:33.616Z,42.5
2023-04-14T14:05:29.138Z,42.5
2023-04-14T14:11:23.428Z,42.4
2023-04-14T14:17:10.396Z,42.4
2023-04-14T14:23:02.549Z,42.4
2023-04-14T14:28:51.417Z,42.3
2023-04-14T14:34:47.090Z,42.3
2023-04-14T14:40:39.761Z,42.3
2023-04-14T14:46:36.968Z,42.2
2023-04-14T14:52:39.645Z,42.1
2023-04-14T14:58:40.656Z,42.1
2023-04-14T15:04:19.318Z,42.1
2023-04-14T15:10:10.795Z,42.1
2023-04-14T15:16:03.219Z,42
2023-04-14T15:21:54.590Z,41.9
2023-04-14T15:27:46.063Z,41.9
2023-04-14T15:33:38.460Z,41.9
2023-04-14T15:39:30.405Z,41.8
2023-04-14T15:45:22.672Z,41.8
2023-04-14T15:51:34.205Z,41.8
2023-04-14T15:57:27.365Z,41.7
2023-04-14T16:03:20.095Z,41.7
2023-04-14T16:09:13.026Z,41.6
2023-04-14T16:15:06.117Z,41.6
2023-04-14T16:20:59.660Z,41.6
2023-04-14T16:26:51.641Z,41.5
2023-04-14T16:32:43.486Z,41.4
2023-04-14T16:38:35.297Z,41.4
2023-04-14T16:44:27.135Z,41.4
2023-04-14T16:50:19.223Z,41.4
2023-04-14T16:56:11.540Z,41.3
2023-04-14T17:02:04.400Z,41.3
2023-04-14T17:08:00.961Z,41.3
2023-04-14T17:13:53.009Z,41.2
2023-04-14T17:19:53.288Z,41.2
2023-04-14T17:25:45.645Z,41.1
2023-04-14T17:31:37.711Z,41.1
2023-04-14T17:37:29.302Z,41.1
2023-04-14T17:43:21.113Z,41
2023-04-14T17:49:14.424Z,40.9
2023-04-14T17:54:50.939Z,40.9
2023-04-14T18:00:42.617Z,40.8
2023-04-14T18:06:36.089Z,40.7
2023-04-14T18:12:27.813Z,40.6
2023-04-14T18:18:19.475Z,40.6
2023-04-14T18:30:28.205Z,40.4
2023-04-14T18:36:20.424Z,40.4
2023-04-14T18:42:11.885Z,40.3
2023-04-14T18:48:03.876Z,40.3
2023-04-14T18:53:41.511Z,40.2
2023-04-14T18:59:42.087Z,40.1
2023-04-14T19:05:19.851Z,40.1
2023-04-14T19:11:11.969Z,40.1
2023-04-14T19:16:58.889Z,40
2023-04-14T19:22:35.534Z,39.9
2023-04-14T19:28:12.701Z,39.9
2023-04-14T19:33:49.651Z,39.9
2023-04-14T19:39:26.123Z,39.9
2023-04-14T19:45:17.604Z,39.8
2023-04-14T19:51:05.985Z,39.8
2023-04-14T19:56:57.874Z,39.8
2023-04-14T20:02:52.858Z,39.8
2023-04-14T20:09:14.684Z,39.7
2023-04-14T20:15:06.322Z,39.6
2023-04-14T20:20:58.414Z,39.6
2023-04-14T20:26:49.701Z,39.6
2023-04-14T20:32:42.396Z,39.6
2023-04-14T20:38:33.412Z,39.5
2023-04-14T20:44:24.476Z,39.5
2023-04-14T20:50:16.942Z,39.4
2023-04-14T20:55:52.503Z,39.4
2023-04-14T21:01:43.370Z,39.4
2023-04-14T21:07:38.460Z,39.4
2023-04-14T21:17:33.172Z,39.3
2023-04-14T21:23:25.409Z,39.3
2023-04-14T21:29:16.358Z,39.3
2023-04-14T21:35:07.417Z,39.2
2023-04-14T21:40:44.521Z,39.2
2023-04-14T21:46:20.108Z,39.1
2023-04-14T21:52:12.882Z,39.1
2023-04-14T21:58:54.943Z,39.1
2023-04-14T22:04:58.091Z,39.1
2023-04-14T22:10:50.097Z,39
2023-04-14T22:16:27.088Z,39
2023-04-14T22:22:18.530Z,38.9
2023-04-14T22:27:54.250Z,38.9
2023-04-14T22:33:31.672Z,38.9
2023-04-14T22:39:07.660Z,38.9
2023-04-14T22:44:59.196Z,38.8
2023-04-14T22:50:51.928Z,38.8
2023-04-14T22:56:49.798Z,38.8
2023-04-14T23:02:52.526Z,38.8
2023-04-14T23:08:45.513Z,38.7
2023-04-14T23:14:37.092Z,38.7
2023-04-14T23:20:27.421Z,38.6
2023-04-14T23:26:19.797Z,38.6
2023-04-14T23:31:55.830Z,38.6
2023-04-14T23:37:47.577Z,38.6
2023-04-14T23:43:39.375Z,38.6
2023-04-14T23:49:51.155Z,38.5
2023-04-14T23:56:05.413Z,38.4
